^^

METAR Reports from Airports

within 500 km


 What is a METAR ??? 

First is the nearest airport (Thessaloniki LGTS 6km) and
finally the most distance (Istanbul LTBA 494km).
Also some reports have less data, because the original
ones are not complete or have wrong format.
Go to METAR Reports from Weather Stations )  
Alphabetical Quick Jump List to the 48 Airports
(AFB)Air Force Base
LGTS - Airport "Makedonia"
Thessaloniki - Central Macedonia - Greece
Lat: 40.5167 - Long: 22.9667 - Elev: 7m
Distance from Vouhead Weather: (S) 6km
Updated: 27/02/2024 12:20
Few Clouds
Few Clouds
 Wind from NW
Wind: NW 11 km/h
Temperature: 17°C
Dew Point: 12°C
Humidity: 73%
Barometer: 1018 hPa
Clouds: Few Clouds
Visibility: 10 km
Cloud analysis: Few Clouds 914 m
2024/02/27 10:20 LGTS 271020Z 31006KT 9999 FEW030 17/12 Q1018 NOSIG
LGKZ - Airport "Filippos"
Kozani - West Macedonia - Greece
Lat: 40.2833 - Long: 21.8333 - Elev: 628m
Distance from Vouhead Weather: (WSW) 102km
Updated: 27/02/2024 11:50
Mostly Cloudy
Mostly Cloudy
 Wind from calm
Wind: Calm 
Temperature: 13°C
Dew Point: 7°C
Humidity: 67%
Barometer: 1018 hPa
Clouds: Mostly Cloudy
Visibility: 10 km
Cloud analysis: Partly Cloudy 610 m
Mostly Cloudy 2134 m
2024/02/27 09:50 LGKZ 270950Z 00000KT 9999 SCT020 BKN070 13/07 Q1018
 
LGKV - Airport "Megas Alexandros"
Kavala(Chrysoupoli) - E. Macedonia & Thrace - Greece
Lat: 40.9167 - Long: 24.6167 - Elev: 5m
Distance from Vouhead Weather: (ENE) 144km
Updated: 27/02/2024 12:20
Few Clouds
Few Clouds
 Wind from SE
Wind: SE 13 km/h
Temperature: 16°C
Dew Point: 9°C
Humidity: 63%
Barometer: 1018 hPa
Clouds: Few Clouds
Visibility: 10 km
Cloud analysis: Few Clouds 1067 m
2024/02/27 10:20 LGKV 271020Z 14007KT 9999 FEW035 16/09 Q1018
LGBL - Airport at Nea Anchialos
Volos(Almyros) - Thessaly - Greece
Lat: 39.2167 - Long: 22.8000 - Elev: 26m
Distance from Vouhead Weather: (S) 151km
Updated: 27/02/2024 12:20
Partly Cloudy
Partly Cloudy
 Wind from E
Wind: E 7 km/h
Temperature: 16°C
Dew Point: 12°C
Humidity: 77%
Barometer: 1018 hPa
Clouds: Partly Cloudy
Visibility: 10 km
Cloud analysis: Partly Cloudy 762 m
Partly Cloudy 2134 m
2024/02/27 10:20 LGBL 271020Z 10004KT 9999 SCT025 SCT070 16/12 Q1018
 
LGSK - Airport "Alexandros Papadiamandis"
Skiathos - Thessaly Sporades - Greece
Lat: 39.1833 - Long: 23.5000 - Elev: 15m
Distance from Vouhead Weather: (SSE) 160km
Updated: 26/02/2024 19:50
NOT CURRENT METAR
Partly Cloudy
Partly Cloudy
 Wind from NE
Wind: NE 11 km/h
Temperature: 15°C
Dew Point: 12°C
Humidity: 82%
Barometer: 1009 hPa
Clouds: Partly Cloudy
Visibility: 10 km
Cloud analysis: Few Clouds 305 m
Partly Cloudy 914 m
2024/02/26 17:50 LGSK 261750Z 04006KT 9999 FEW010 SCT030 15/12 Q1009
LWSK - Airport "Skopje International Airport"
Skopje(Petrovac) - Skopje Region - R.Ν.M
Lat: 41.9667 - Long: 21.6333 - Elev: 239m
Distance from Vouhead Weather: (NW) 192km
Updated: 27/02/2024 12:20
Mostly Cloudy
Mostly Cloudy
 Wind from SSE
Wind: SSE 17 km/h
Temperature: 18°C
Dew Point: 7°C
Humidity: 49%
Barometer: 1017 hPa
Clouds: Mostly Cloudy
Visibility: 10 km
Cloud analysis: Mostly Cloudy 2134 m
2024/02/27 10:20 LWSK 271020Z 15009KT 120V210 9999 BKN070 18/07 Q1017 NOSIG
 
LWOH - Airport "St. Paul the Apostle"
Ohrid - Southwestern Region - R.Ν.M
Lat: 41.1167 - Long: 20.8000 - Elev: 761m
Distance from Vouhead Weather: (WNW) 193km
Updated: 27/02/2024 12:30
Partly Cloudy
Partly Cloudy
 Wind from S
Wind: S 6 km/h
Temperature: 13°C
Dew Point: 5°C
Humidity: 59%
Barometer: 1016 hPa
Clouds: Partly Cloudy
Visibility: 10 km
Cloud analysis: Partly Cloudy 1219 m
2024/02/27 10:30 LWOH 271030Z 19003KT 9999 SCT040 13/05 Q1016
LGLM - Airport "Hephaestus"
Lemnos - North Aegean - Greece
Lat: 39.9167 - Long: 25.2333 - Elev: 5m
Distance from Vouhead Weather: (ESE) 205km
Updated: 27/02/2024 12:20
Few Clouds
Few Clouds
 Wind from SE
Wind: SE 7 km/h
Temperature: 16°C
Dew Point: 11°C
Humidity: 72%
Barometer: 1017 hPa
Clouds: Few Clouds
Visibility: 10 km
Cloud analysis: Few Clouds 549 m
2024/02/27 10:20 LGLM 271020Z 13004KT 9999 FEW018 16/11 Q1017
 
LGIO - Airport "King Pyrrhus"
Ioannina - Epirus - Greece
Lat: 39.7000 - Long: 20.8167 - Elev: 476m
Distance from Vouhead Weather: (WSW) 207km
Updated: 27/02/2024 12:20
Partly Cloudy
Partly Cloudy
 Wind from varies
Wind: Varies 6 km/h
Temperature: 16°C
Dew Point: 7°C
Humidity: 55%
Barometer: 1016 hPa
Clouds: Partly Cloudy
Visibility: 10 km
Cloud analysis: Few Clouds 914 m
Partly Cloudy 2134 m
2024/02/27 10:20 LGIO 271020Z VRB03KT 9999 FEW030 SCT070 16/07 Q1016
LGSY - Airport at Skyros
Skyros - Thessaly Sporades - Greece
Lat: 38.9667 - Long: 24.4833 - Elev: 15m
Distance from Vouhead Weather: (SE) 220km
Updated: 27/02/2024 11:50
Partly Cloudy
Partly Cloudy
 Wind from E
Wind: E 15 km/h
Temperature: 17°C
Dew Point: 13°C
Humidity: 77%
Barometer: 1018 hPa
Clouds: Partly Cloudy
Visibility: 10 km
Cloud analysis: Partly Cloudy 610 m
2024/02/27 09:50 LGSY 270950Z 08008KT 9999 SCT020 17/13 Q1018 BLU
 
LBPD - Airport at Plovdiv
Plovdiv(Krumovo) - Plovdiv - Bulgaria
Lat: 42.1333 - Long: 24.8000 - Elev: 185m
Distance from Vouhead Weather: (NE) 231km
Updated: 27/02/2024 12:00
Clear
Clear
 Wind from ESE
Wind: ESE 13 km/h
Temperature: 11°C
Dew Point: 5°C
Humidity: 67%
Barometer: 1019 hPa
Clouds: Clear
Visibility: 10 km
2024/02/27 10:00 LBPD 271000Z AUTO 12007KT 070V170 9999 NCD 11/05 Q1019 NOSIG
LBSF - Airport at Sofia
Sofia(Vrazhdebna) - Sofia Capital - Bulgaria
Lat: 42.6500 - Long: 23.3833 - Elev: 595m
Distance from Vouhead Weather: (N) 234km
Updated: 27/02/2024 12:00
Clear
Clear
 Wind from varies
Wind: Varies 6 km/h
Temperature: 15°C
Dew Point: 4°C
Humidity: 48%
Barometer: 1017 hPa
Summary: Clear
Visibility: Greater than 10 km
2024/02/27 10:00 LBSF 271000Z VRB03KT CAVOK 15/04 Q1017 NOSIG
 
LGAL - Airport "Dimokritos"
Alexandroupolis - E. Macedonia & Thrace - Greece
Lat: 40.8500 - Long: 25.9167 - Elev: 3m
Distance from Vouhead Weather: (E) 250km
Updated: 27/02/2024 12:20
Few Clouds
Few Clouds
 Wind from E
Wind: E 22 km/h
Temperature: 15°C
Dew Point: 9°C
Humidity: 68%
Barometer: 1018 hPa
Clouds: Few Clouds
Visibility: 10 km
Cloud analysis: Few Clouds 762 m
2024/02/27 10:20 LGAL 271020Z 08012KT 9999 FEW025 15/09 Q1018
BKPR - Airport "Adem Jashari"
Prishtina - Prishtina - Kosovo
(Hellenic Ministry of Foreign Affairs, about Kosovo)
Lat: 42.5833 - Long: 21.0333 - Elev: 576m
Distance from Vouhead Weather: (NW) 276km
Updated: 27/02/2024 12:30
Clear
Clear
 Wind from SSE
Wind: SSE 9 km/h
Temperature: 16°C
Dew Point: 5°C
Humidity: 48%
Barometer: 1015 hPa
Summary: Clear
Visibility: Greater than 10 km
2024/02/27 10:30 BKPR 271030Z 16005KT CAVOK 16/05 Q1015 NOSIG
 
LGKR - Airport "Ioannis Kapodistrias"
Kerkyra - Ionian Islands - Greece
Lat: 39.6000 - Long: 19.9167 - Elev: 2m
Distance from Vouhead Weather: (WSW) 281km
Updated: 27/02/2024 12:20
Partly Cloudy
Partly Cloudy
 Wind from SSE
Wind: SSE 20 km/h
Temperature: 17°C
Dew Point: 11°C
Humidity: 68%
Barometer: 1015 hPa
Clouds: Partly Cloudy
Visibility: 10 km
Cloud analysis: Few Clouds 610 m
Partly Cloudy 2438 m
2024/02/27 10:20 LGKR 271020Z 150011KT 9999 FEW020 SCT080 17/11 Q1015 NOSIG
LATI - Airport "Mother Teresa"
Tirana(Rinas) - Tirana - Albania
Lat: 41.3167 - Long: 19.7667 - Elev: 90m
Distance from Vouhead Weather: (WNW) 282km
Updated: 27/02/2024 12:20
Clear
Clear
 Wind from S
Wind: S 17 km/h
Temperature: 22°C
Dew Point: 6°C
Humidity: 36%
Barometer: 1014 hPa
Summary: Clear
Visibility: Greater than 10 km
2024/02/27 10:20 LATI 271020Z 17009KT 150V220 CAVOK 22/06 Q1014 NOSIG
 
LGEL - Airport at Elefsis(AFB)
Elefsis - Attica - Greece
Lat: 38.0667 - Long: 23.5500 - Elev: 31m
Distance from Vouhead Weather: (S) 282km
Updated: 27/02/2024 12:20
Mostly Cloudy
Mostly Cloudy
 Wind from calm
Wind: Calm 
Temperature: 18°C
Dew Point: 11°C
Humidity: 64%
Barometer: 1017 hPa
Clouds: Mostly Cloudy
Visibility: 10 km
Cloud analysis: Partly Cloudy 762 m
Mostly Cloudy 2134 m
2024/02/27 10:20 LGEL 271020Z 00000KT 9999 SCT025 BKN070 18/11 Q1017
LGPZ - Airport at Preveza
Preveza(Aktion) - Epirus - Greece
Lat: 38.6167 - Long: 20.7667 - Elev: 4m
Distance from Vouhead Weather: (SW) 288km
Updated: 27/02/2024 12:20
Few Clouds
Few Clouds
 Wind from S
Wind: S 6 km/h
Temperature: 19°C
Dew Point: 11°C
Humidity: 60%
Barometer: 1016 hPa
Clouds: Few Clouds
Visibility: 10 km
Cloud analysis: Few Clouds 1067 m
2024/02/27 10:20 LGPZ 271020Z 18003KT 9999 FEW035 19/11 Q1016
 
LGRX - Airport at Patras(AFB)
Patras(Araxos) - West Greece - Greece
Lat: 38.1667 - Long: 21.4167 - Elev: 15m
Distance from Vouhead Weather: (SSW) 299km
Updated: 27/02/2024 12:20
Few Clouds
Few Clouds
 Wind from NE
Wind: NE 15 km/h
Temperature: 18°C
Dew Point: 11°C
Humidity: 64%
Barometer: 1016 hPa
Clouds: Few Clouds
Visibility: 10 km
Cloud analysis: Few Clouds 610 m
2024/02/27 10:20 LGRX 271020Z 05008KT 9999 FEW020 18/11 Q1016
LGAV - Airport "Eleftherios Venizelos"
Athens(Spata) - Attica - Greece
Lat: 37.9333 - Long: 23.9500 - Elev: 94m
Distance from Vouhead Weather: (SSE) 305km
Updated: 27/02/2024 12:20
Partly Cloudy
Partly Cloudy
 Wind from ENE
Wind: ENE 15 km/h
Temperature: 17°C
Dew Point: 10°C
Humidity: 64%
Barometer: 1017 hPa
Clouds: Partly Cloudy
Visibility: 10 km
Cloud analysis: Partly Cloudy 762 m
2024/02/27 10:20 LGAV 271020Z 06008KT 9999 SCT025 17/10 Q1017 NOSIG
 
LYNI - Airport "Constantine The Great"
Nis - Southern and Eastern Serbia - Serbia
Lat: 43.3167 - Long: 21.8833 - Elev: 202m
Distance from Vouhead Weather: (NNW) 319km
Updated: 27/02/2024 12:00
Few Clouds
Few Clouds
 Wind from S
Wind: S 13 km/h
Temperature: 19°C
Dew Point: 5°C
Humidity: 40%
Barometer: 1016 hPa
Clouds: Few Clouds
Visibility: 10 km
Cloud analysis: Few Clouds 1524 m
2024/02/27 10:00 LYNI 271000Z 17007KT 110V250 9999 FEW050 19/05 Q1016 TEMPO 10010KT
LGAD - Airport at Andravida(AFB)
Andravida - West Greece - Greece
Lat: 37.9167 - Long: 21.2667 - Elev: 12m
Distance from Vouhead Weather: (SSW) 329km
Updated: 27/02/2024 12:20
Few Clouds
Few Clouds
 Wind from WNW
Wind: WNW 7 km/h
Temperature: 18°C
Dew Point: 11°C
Humidity: 64%
Barometer: 1016 hPa
Clouds: Few Clouds
Visibility: 10 km
Cloud analysis: Few Clouds 610 m
2024/02/27 10:20 LGAD 271020Z 30004KT 9999 FEW020 18/11 Q1016
 
LGKF - Airport at Kefalonia
Kefalonia - Ionian Islands - Greece
Lat: 38.1167 - Long: 20.5000 - Elev: 18m
Distance from Vouhead Weather: (SW) 346km
Updated: 27/02/2024 12:20
Few Clouds
Few Clouds
 Wind from SE
Wind: SE 15 km/h
Temperature: 17°C
Dew Point: 12°C
Humidity: 73%
Barometer: 1016 hPa
Clouds: Few Clouds
Visibility: 10 km
Cloud analysis: Few Clouds 488 m
2024/02/27 10:20 LGKF 271020Z 14008KT 9999 FEW016 17/12 Q1016
LGMT - Airport "Odysseas Elytis"
Lesvos - North Aegean - Greece
Lat: 39.0500 - Long: 26.6000 - Elev: 17m
Distance from Vouhead Weather: (ESE) 353km
Updated: 27/02/2024 12:20
Few Clouds
Few Clouds
 Wind from N
Wind: N 7 km/h
Temperature: 19°C
Dew Point: 11°C
Humidity: 60%
Barometer: 1018 hPa
Clouds: Few Clouds
Visibility: 10 km
Cloud analysis: Few Clouds 762 m
2024/02/27 10:20 LGMT 271020Z 35004KT 9999 FEW025 19/11 Q1018
 
LGZA - Airport "Dionysios Solomos"
Zakynthos - Ionian Islands - Greece
Lat: 37.7500 - Long: 20.8667 - Elev: 3m
Distance from Vouhead Weather: (SSW) 362km
Updated: 27/02/2024 12:20
Few Clouds
Few Clouds
 Wind from SSE
Wind: SSE 9 km/h
Temperature: 17°C
Dew Point: 11°C
Humidity: 68%
Barometer: 1016 hPa
Clouds: Few Clouds
Visibility: 10 km
Cloud analysis: Few Clouds 549 m
2024/02/27 10:20 LGZA 271020Z 15005KT 9999 FEW018 17/11 Q1016
LBGO - Airport at Gorna Oryahovitsa
Gorna Oryahovitsa - Veliko Tarnovo - Bulgaria
Lat: 43.1500 - Long: 25.7167 - Elev: 86m
Distance from Vouhead Weather: (NE) 366km
Updated: 27/02/2024 12:00
Clear
Clear
 Wind from WNW
Wind: WNW 9 km/h
Temperature: 12°C
Dew Point: 5°C
Humidity: 63%
Barometer: 1019 hPa
Clouds: Clear
Visibility: 10 km
2024/02/27 10:00 LBGO 271000Z AUTO 29005KT 230V340 9999 NCD 12/05 Q1019 NOSIG
 
LGHI - Airport "Omiros"
Chios - Ionian Islands - Greece
Lat: 38.3167 - Long: 26.1167 - Elev: 4m
Distance from Vouhead Weather: (SE) 368km
Updated: 27/02/2024 11:50
Few Clouds
Few Clouds
 Wind from varies
Wind: Varies 4 km/h
Temperature: 18°C
Dew Point: 13°C
Humidity: 73%
Barometer: 1017 hPa
Clouds: Few Clouds
Visibility: 10 km
Cloud analysis: Few Clouds 762 m
2024/02/27 09:50 LGHI 270950Z VRB02KT 9999 FEW025 18/13 Q1017
LYPG - Airport at Podgorica
Podgorica - Golubovci - Montenegro
Lat: 42.3667 - Long: 19.2500 - Elev: 43m
Distance from Vouhead Weather: (NW) 369km
Updated: 27/02/2024 12:00
Partly Cloudy
Partly Cloudy
 Wind from varies
Wind: Varies 2 km/h
Temperature: 17°C
Dew Point: 7°C
Humidity: 52%
Barometer: 1015 hPa
Clouds: Partly Cloudy
Visibility: 10 km
Cloud analysis: Few Clouds 1219 m
Partly Cloudy 2438 m
2024/02/27 10:00 LYPG 271000Z VRB01KT 9999 FEW040 SCT080 17/07 Q1015 NOSIG
 
LGSO - Airport "Demetrius Vikelas"
Syros - South Aegean - Greece
Lat: 37.4167 - Long: 24.9500 - Elev: 72m
Distance from Vouhead Weather: (SSE) 390km
Updated: 27/02/2024 11:50
Few Clouds
Few Clouds
 Wind from E
Wind: E 30 km/h
Temperature: 17°C
Dew Point: 13°C
Humidity: 77%
Barometer: 1016 hPa
Clouds: Few Clouds
Visibility: 10 km
Cloud analysis: Few Clouds 457 m
2024/02/27 09:50 LGSO 270950Z 09016KT 9999 FEW015 17/13 Q1016
LGKL - Airport at Kalamata(AFB)
Kalamata - Peloponnese - Greece
Lat: 37.0667 - Long: 22.0167 - Elev: 8m
Distance from Vouhead Weather: (SSW) 398km
Updated: 27/02/2024 12:20
Partly Cloudy
Partly Cloudy
 Wind from SSE
Wind: SSE 15 km/h
Temperature: 18°C
Dew Point: 12°C
Humidity: 68%
Barometer: 1017 hPa
Clouds: Partly Cloudy
Visibility: 10 km
Cloud analysis: Few Clouds 914 m
Partly Cloudy 2438 m
2024/02/27 10:20 LGKL 271020Z 16008KT 9999 FEW030 SCT080 18/12 Q1017
 
LIBY - Airport at Santa Maria di Leuca
Santa Maria di Leuca - Apulia(Lecce) - Italy
Lat: 39.8167 - Long: 18.3500 - Elev: 112m
Distance from Vouhead Weather: (W) 402km
Updated: 27/02/2024 11:55
Clear
Clear
 Wind from SSE
Wind: SSE 24 km/h
Temperature: 15°C
Dew Point: 11°C
Humidity: 77%
Barometer: 1013 hPa
Summary: Clear
Visibility: Greater than 10 km
2024/02/27 09:55 LIBY 270955Z 16013KT CAVOK 15/11 Q1013 RMK BKN FEW090 SCT180 BKN190 QUK 3 QUL 1 S VIS MAR 18 KM VIS MIN 9999
LGMK - Airport at Mykonos
Mykonos - South Aegean - Greece
Lat: 37.4333 - Long: 25.3500 - Elev: 123m
Distance from Vouhead Weather: (SSE) 404km
Updated: 27/02/2024 12:20
Few Clouds
Few Clouds
 Wind from ESE
Wind: ESE 15 km/h, Gust: 33 km/h
Temperature: 17°C
Dew Point: 10°C
Humidity: 64%
Barometer: 1017 hPa
Clouds: Few Clouds
Visibility: 10 km
Cloud analysis: Few Clouds 457 m
2024/02/27 10:20 LGMK 271020Z 11008G18KT 9999 FEW015 17/10 Q1017
 
LYTV - Airport at Tivat
Tivat - Tivat - Montenegro
Lat: 42.3833 - Long: 18.7167 - Elev: 5m
Distance from Vouhead Weather: (WNW) 408km
Updated: 27/02/2024 12:00
Mostly Cloudy
Mostly Cloudy
 Wind from calm
Wind: Calm 
Temperature: 16°C
Dew Point: 9°C
Humidity: 63%
Barometer: 1014 hPa
Clouds: Mostly Cloudy
Visibility: 10 km
Cloud analysis: Few Clouds 1829 m
Mostly Cloudy 2134 m
2024/02/27 10:00 LYTV 271000Z 00000KT 9999 FEW060 BKN070 16/09 Q1014 NOSIG
LIBN - Airport at Galatina(AFB)
Galatina - Apulia(Lecce) - Italy
Lat: 40.2167 - Long: 18.1333 - Elev: 61m
Distance from Vouhead Weather: (W) 412km
Updated: 27/02/2024 11:55
Few Clouds
Few Clouds
 Wind from S
Wind: S 31 km/h
Temperature: 17°C
Dew Point: 9°C
Humidity: 59%
Barometer: 1013 hPa
Clouds: Few Clouds
Visibility: 10 km
Cloud analysis: Few Clouds 549 m
2024/02/27 09:55 LIBN 270955Z 17017KT 9999 FEW018 17/09 Q1013
 
LYKV - Airport at Kraljevo & Ladevci
Kraljevo(Obrva) - Sumadija & W. Serbia - Serbia
Lat: 43.8167 - Long: 20.5833 - Elev: 209m
Distance from Vouhead Weather: (NNW) 412km
Updated: 27/02/2024 12:00
Clear
Clear
 Wind from SE
Wind: SE 17 km/h
Temperature: 16°C
Dew Point: 7°C
Humidity: 55%
Barometer: 1014 hPa
Summary: Clear
Visibility: Greater than 10 km
2024/02/27 10:00 LYKV 271000Z 14009KT CAVOK 16/07 Q1014 NOSIG
LTBU - Airport at Corlu(AFB)
Corlu - Marmara(Tekirdag) - Turkey
Lat: 41.1167 - Long: 27.9167 - Elev: 173m
Distance from Vouhead Weather: (E) 420km
Updated: 27/02/2024 11:50
Clear
Clear
 Wind from E
Wind: E 7 km/h
Temperature: 12°C
Dew Point: 6°C
Humidity: 67%
Barometer: 1019 hPa
Summary: Clear
Visibility: Greater than 10 km
2024/02/27 09:50 LTBU 270950Z 09004KT 040V160 CAVOK 12/06 Q1019
 
LRCV - Airport at Craiova
Craiova - Dolj - Romania
Lat: 44.3167 - Long: 23.8833 - Elev: 191m
Distance from Vouhead Weather: (N) 424km
Updated: 27/02/2024 12:00
Clear
Clear
 Wind from E
Wind: E 22 km/h
Temperature: 11°C
Dew Point: 4°C
Humidity: 62%
Barometer: 1019 hPa
Summary: Clear
Visibility: Greater than 10 km
2024/02/27 10:00 LRCV 271000Z 09012KT CAVOK 11/04 Q1019
LIBR - Airport at Brindisi
(Unofficial airport name: Del Salento)
Brindisi(Papola-Casale) - Apulia(Brindisi) - Italy
Lat: 40.6500 - Long: 17.9500 - Elev: 10m
Distance from Vouhead Weather: (W) 424km
Updated: 27/02/2024 12:20
Clear
Clear
 Wind from S
Wind: S 30 km/h
Temperature: 18°C
Dew Point: 15°C
Humidity: 83%
Barometer: 1013 hPa
Summary: Clear
Visibility: Greater than 10 km
2024/02/27 10:20 LIBR 271020Z 18016KT CAVOK 18/15 Q1013
 
LBBG - Airport at Burgas
Burgas(Sarafovo) - Burgas - Bulgaria
Lat: 42.5000 - Long: 27.4833 - Elev: 28m
Distance from Vouhead Weather: (ENE) 432km
Updated: 27/02/2024 12:00
Overcast
Overcast
 Wind from SSE
Wind: SSE 7 km/h
Temperature: 10°C
Wind Chill: 9°C
Dew Point: 7°C
Humidity: 82%
Barometer: 1020 hPa
Clouds: Overcast
Visibility: 10 km
Cloud analysis: Overcast 457 m
2024/02/27 10:00 LBBG 271000Z 15004KT 110V180 9999 OVC015 10/07 Q1020 NOSIG
LGPA - Airport "Panteleou"
Paros - South Aegean - Greece
Lat: 37.0000 - Long: 25.0667 - Elev: 36m
Distance from Vouhead Weather: (SSE) 436km
Updated: 27/02/2024 11:20
Partly Cloudy
Partly Cloudy
 Wind from ESE
Wind: ESE 15 km/h
Temperature: 18°C
Dew Point: 13°C
Humidity: 73%
Barometer: 1016 hPa
Clouds: Partly Cloudy
Visibility: 10 km
Cloud analysis: Partly Cloudy 762 m
2024/02/27 09:20 LGPA 270920Z 12008KT 9999 SCT025 18/13 Q1016
 
LGNX - Airport at Naxos
Naxos - South Aegean - Greece
Lat: 37.0833 - Long: 25.3667 - Elev: 4m
Distance from Vouhead Weather: (SSE) 439km
Updated: 27/02/2024 11:50
Partly Cloudy
Partly Cloudy
 Wind from varies
Wind: Varies 6 km/h
Temperature: 18°C
Dew Point: 13°C
Humidity: 73%
Barometer: 1016 hPa
Clouds: Partly Cloudy
Visibility: 10 km
Cloud analysis: Partly Cloudy 610 m
Partly Cloudy 914 m
2024/02/27 09:50 LGNX 270950Z VRB03KT 9999 SCT020 SCT030 18/13 Q1016
LTBJ - Airport "Adnan Menderes"
Izmir - Aegean(Izmir) - Turkey
Lat: 38.2667 - Long: 27.1333 - Elev: 120m
Distance from Vouhead Weather: (SE) 439km
Updated: 27/02/2024 11:50
Few Clouds
Few Clouds
 Wind from varies
Wind: Varies 11 km/h
Temperature: 19°C
Dew Point: 7°C
Humidity: 46%
Barometer: 1017 hPa
Clouds: Few Clouds
Visibility: 10 km
Cloud analysis: Few Clouds 914 m
2024/02/27 09:50 LTBJ 270950Z VRB06KT 9999 FEW030 19/07 Q1017 NOSIG
 
LDDU - Airport at Dubrovnik
Dubrovnik(Cilipi) - Dubrovnik Neretva - Croatia
Lat: 42.5667 - Long: 18.2667 - Elev: 165m
Distance from Vouhead Weather: (WNW) 450km
Updated: 27/02/2024 12:00
Few Clouds
Few Clouds
 Wind from SE
Wind: SE 26 km/h
Temperature: 16°C
Dew Point: 6°C
Humidity: 52%
Barometer: 1014 hPa
Clouds: Few Clouds
Visibility: 10 km
Cloud analysis: Few Clouds 2073 m
2024/02/27 10:00 LDDU 271000Z 14014KT 9999 FEW068 16/06 Q1014 NOSIG
LYUZ - Airport at Uzice & Ponikve
(Unofficial airport name: Lepa Glava)
Uzice - Sumadija & W. Serbia - Serbia
Lat: 43.9000 - Long: 19.7000 - Elev: 904m
Distance from Vouhead Weather: (NW) 458km
Updated: 04/11/2021 01:30
NOT CURRENT METAR

 Wind from varies
Wind: Varies 9 km/h
Temperature: 14°C
Dew Point: 7°C
Humidity: 63%
Barometer: 1010 hPa
Visibility: 10 km
2021/11/03 23:30 LYUZ 032330Z AUTO VRB05KT 9999 ////// 14/07 Q1010
 
LGSM - Airport "Aristarchos of Samos"
Samos - North Aegean - Greece
Lat: 37.6833 - Long: 26.9167 - Elev: 6m
Distance from Vouhead Weather: (SE) 467km
Updated: 27/02/2024 12:20
Few Clouds
Few Clouds
 Wind from varies
Wind: Varies 6 km/h
Temperature: 17°C
Dew Point: 10°C
Humidity: 64%
Barometer: 1017 hPa
Clouds: Few Clouds
Visibility: 10 km
Cloud analysis: Few Clouds 762 m
2024/02/27 10:20 LGSM 271020Z VRB03KT 9999 FEW025 17/10 Q1017
LIBG - Airport "Marcello Arlotta"
Monteiasi(Taranto-Grottaglie) - Apulia(Taranto) - Italy
Lat: 40.5167 - Long: 17.3833 - Elev: 69m
Distance from Vouhead Weather: (W) 472km
Updated: 27/02/2024 11:50
Partly Cloudy
Partly Cloudy
 Wind from SSE
Wind: SSE 28 km/h
Temperature: 16°C
Dew Point: 10°C
Humidity: 68%
Barometer: 1012 hPa
Clouds: Partly Cloudy
Visibility: 10 km
Cloud analysis: Partly Cloudy 457 m
2024/02/27 09:50 LIBG 270950Z 16015KT 9999 SCT015 16/10 Q1012
 
LGKC - Airport at Kythira
Kythira(Heptanese) - Attica(Islands) - Greece
Lat: 36.2833 - Long: 23.0167 - Elev: 319m
Distance from Vouhead Weather: (S) 476km
Updated: 27/02/2024 11:50
Few Clouds
Few Clouds
 Wind from ENE
Wind: ENE 26 km/h
Temperature: 15°C
Dew Point: 10°C
Humidity: 72%
Barometer: 1017 hPa
Clouds: Few Clouds
Visibility: 10 km
Cloud analysis: Few Clouds 762 m
2024/02/27 09:50 LGKC 270950Z 06014KT 9999 FEW025 15/10 Q1017
LTBA - Airport "Ataturk"
Istanbul - Marmara(Istanbul) - Turkey
Lat: 40.9667 - Long: 28.8167 - Elev: 37m
Distance from Vouhead Weather: (E) 494km
Updated: 27/02/2024 11:50
Clear
Clear
 Wind from varies
Wind: Varies 7 km/h
Temperature: 13°C
Dew Point: 6°C
Humidity: 63%
Barometer: 1020 hPa
Summary: Clear
Visibility: Greater than 10 km
2024/02/27 09:50 LTBA 270950Z VRB04KT CAVOK 13/06 Q1020
   This data is not to be used for protection of life and property  
GO TO IONIA GO TO KALAMATA GO TO KIFISSIA GO TO SYROS GO TO DEXAMENI (BOLTEK) GO TO DEXAMENI (LR) GO TO LARISSA General Secretariat for Civil Protection European Emergency Call Number Video for Kastelorizo(Megisti) from ERT(state-TV) archives Municipality of Megisti website See it bigger